Time;durP1;ratioP1;P1;durP2;ratioP2;P2;SDS_P1;SDS_P2;PMS_P1;PMS_P2;Temp;Humidity;BMP_temperature;BMP_pressure;BME280_temperature;BME280_humidity;BME280_pressure;Samples;Min_cycle;Max_cycle;Signal;HPM_P1;HPM_P2
2022/03/30 00:03:20;;;;;;;21.63;11.83;;;;;;;12.37;29.10;99654.97;10379420;28;20256;-85
2022/03/30 00:08:22;;;;;;;20.80;12.17;;;;;;;12.35;29.43;99646.00;10349605;28;20279;-86
2022/03/30 00:13:25;;;;;;;23.70;12.27;;;;;;;11.93;29.80;99643.16;10382098;28;20541;-86
2022/03/30 00:18:28;;;;;;;22.27;12.13;;;;;;;11.94;29.81;99637.09;10365320;28;20546;-85
2022/03/30 00:23:30;;;;;;;22.63;12.63;;;;;;;12.28;29.31;99637.38;10381416;28;20271;-85
2022/03/30 00:28:32;;;;;;;24.30;13.00;;;;;;;12.09;29.55;99626.91;10365018;28;20573;-86
2022/03/30 00:33:34;;;;;;;23.03;13.80;;;;;;;11.72;30.19;99641.53;10364456;28;20549;-85
2022/03/30 00:38:36;;;;;;;24.07;13.50;;;;;;;12.06;30.08;99625.59;10348548;28;20197;-86
2022/03/30 00:43:39;;;;;;;21.10;13.23;;;;;;;11.62;30.40;99635.66;10393334;28;20200;-86
2022/03/30 00:48:42;;;;;;;22.87;12.90;;;;;;;10.62;31.95;99638.16;10400194;28;20286;-86
2022/03/30 00:53:45;;;;;;;22.70;13.67;;;;;;;11.36;30.89;99633.50;10364328;28;20270;-86
2022/03/30 00:58:48;;;;;;;22.73;13.10;;;;;;;11.33;31.12;99629.38;10393705;28;20196;-86
2022/03/30 01:03:50;;;;;;;21.90;13.13;;;;;;;12.12;29.71;99621.31;10404527;28;20495;-86
2022/03/30 01:08:52;;;;;;;25.60;13.50;;;;;;;11.58;31.35;99629.09;10419423;28;20250;-86
2022/03/30 01:13:55;;;;;;;26.37;13.10;;;;;;;11.14;31.17;99618.81;10371240;28;20306;-87
2022/03/30 01:19:08;;;;;;;25.27;13.53;;;;;;;11.78;30.30;99610.91;10391764;28;20251;-86
2022/03/30 01:24:12;;;;;;;25.47;14.03;;;;;;;11.39;30.94;99599.59;10366694;28;20206;-85
2022/03/30 01:34:35;;;;;;;26.27;13.77;;;;;;;11.35;31.13;99601.53;10391494;28;20266;-86
2022/03/30 01:39:38;;;;;;;26.83;13.10;;;;;;;11.21;31.46;99598.38;10381334;28;20209;-87
2022/03/30 01:44:41;;;;;;;24.33;12.60;;;;;;;11.09;31.55;99581.53;10379455;28;20667;-86
2022/03/30 01:49:43;;;;;;;25.67;13.27;;;;;;;11.06;31.11;99580.25;10402588;28;20694;-85
2022/03/30 01:54:45;;;;;;;24.37;13.37;;;;;;;10.97;31.59;99576.00;10386291;28;20197;-85
2022/03/30 01:59:48;;;;;;;20.77;13.43;;;;;;;11.24;31.52;99575.00;10402574;28;20192;-84
2022/03/30 02:04:50;;;;;;;29.80;13.70;;;;;;;11.44;30.99;99562.50;10392037;28;20240;-85
2022/03/30 02:09:52;;;;;;;24.93;13.47;;;;;;;10.95;31.24;99562.22;10360489;28;20217;-85
2022/03/30 02:14:55;;;;;;;30.70;15.10;;;;;;;10.76;31.61;99560.19;10360455;28;20241;-86
2022/03/30 02:19:58;;;;;;;34.10;14.43;;;;;;;11.01;31.53;99554.25;10360312;28;20201;-85
2022/03/30 02:25:00;;;;;;;23.37;12.87;;;;;;;10.61;31.89;99561.03;10360850;28;20438;-86
2022/03/30 02:30:04;;;;;;;26.30;13.60;;;;;;;11.17;31.39;99546.53;10360612;28;20229;-85
2022/03/30 02:35:07;;;;;;;27.27;13.03;;;;;;;10.54;32.08;99529.78;10376778;28;20194;-85
2022/03/30 02:40:09;;;;;;;29.50;13.93;;;;;;;11.27;30.96;99531.78;10361014;28;20483;-85
2022/03/30 02:45:11;;;;;;;22.23;13.50;;;;;;;10.86;31.35;99536.19;10400797;28;20204;-85
2022/03/30 02:50:14;;;;;;;23.93;14.20;;;;;;;10.71;31.97;99523.72;10416986;28;20224;-85
2022/03/30 02:55:16;;;;;;;24.87;13.73;;;;;;;10.17;32.67;99520.78;10384255;28;20227;-85
2022/03/30 03:00:18;;;;;;;24.00;13.23;;;;;;;10.53;32.15;99519.66;10345120;28;20208;-84
2022/03/30 03:05:21;;;;;;;25.37;13.83;;;;;;;10.37;32.64;99516.81;10359565;28;20216;-84
2022/03/30 03:10:23;;;;;;;23.07;13.77;;;;;;;10.58;31.65;99507.25;10386274;28;20220;-85
2022/03/30 03:15:25;;;;;;;24.83;12.90;;;;;;;10.63;32.04;99499.28;10366754;28;20230;-84
2022/03/30 03:20:28;;;;;;;24.17;13.80;;;;;;;10.19;32.68;99489.34;10378624;28;20252;-84
2022/03/30 03:25:35;;;;;;;26.83;13.30;;;;;;;9.82;33.27;99492.47;10350270;28;20292;-85
2022/03/30 03:30:38;;;;;;;27.50;13.30;;;;;;;10.44;32.14;99491.59;10382890;28;20221;-84
2022/03/30 03:35:40;;;;;;;27.77;14.07;;;;;;;10.04;32.75;99486.16;10366147;28;20213;-85
2022/03/30 03:40:44;;;;;;;26.30;13.90;;;;;;;9.94;32.98;99488.75;10341070;28;20202;-83
2022/03/30 03:45:46;;;;;;;24.03;13.17;;;;;;;9.56;33.21;99494.97;10351002;28;20268;-84
2022/03/30 03:50:48;;;;;;;24.90;13.63;;;;;;;9.59;33.19;99489.44;10344463;28;20237;-83
2022/03/30 03:55:50;;;;;;;23.33;14.20;;;;;;;9.32;33.61;99491.09;10366135;28;20216;-88
2022/03/30 04:00:52;;;;;;;21.23;13.23;;;;;;;9.30;33.72;99487.81;10396782;28;20201;-84
2022/03/30 04:05:55;;;;;;;26.73;12.83;;;;;;;9.57;33.10;99490.97;10366109;28;20247;-84
2022/03/30 04:10:57;;;;;;;25.43;13.30;;;;;;;9.21;33.77;99483.50;10382343;28;20504;-83
2022/03/30 04:15:59;;;;;;;27.07;13.70;;;;;;;9.54;33.42;99480.41;10397392;28;20240;-83
2022/03/30 04:21:01;;;;;;;25.40;13.23;;;;;;;9.65;32.73;99471.06;10406178;28;20215;-84
2022/03/30 04:26:04;;;;;;;26.67;14.40;;;;;;;9.42;33.07;99474.84;10405464;28;20598;-84
2022/03/30 04:31:12;;;;;;;23.50;13.10;;;;;;;9.34;33.36;99460.50;10421963;28;20517;-84
2022/03/30 04:36:15;;;;;;;24.40;13.43;;;;;;;9.65;32.83;99447.66;10404018;28;20204;-85
2022/03/30 04:41:17;;;;;;;26.03;14.03;;;;;;;9.35;33.22;99450.88;10383755;28;20201;-84
2022/03/30 04:46:19;;;;;;;25.00;13.40;;;;;;;9.63;32.87;99450.03;10348014;28;20213;-84
2022/03/30 04:51:22;;;;;;;29.33;14.90;;;;;;;9.59;32.75;99443.47;10380253;28;20626;-84
2022/03/30 04:56:24;;;;;;;31.10;13.90;;;;;;;9.25;33.33;99440.13;10363742;28;20546;-84
2022/03/30 05:01:26;;;;;;;26.50;14.83;;;;;;;9.05;33.71;99441.19;10347527;28;20197;-84
2022/03/30 05:06:29;;;;;;;25.00;14.83;;;;;;;8.94;33.60;99440.03;10363298;28;20267;-84
2022/03/30 05:11:31;;;;;;;33.20;14.50;;;;;;;9.42;32.90;99440.97;10363228;28;20213;-84
2022/03/30 05:16:34;;;;;;;24.87;14.53;;;;;;;9.02;33.47;99447.53;10362816;28;20284;-84
2022/03/30 05:21:36;;;;;;;28.43;15.27;;;;;;;8.96;33.63;99449.78;10362966;28;20193;-84
2022/03/30 05:26:38;;;;;;;29.17;14.67;;;;;;;8.74;34.06;99446.72;10363061;28;20193;-84
2022/03/30 05:31:41;;;;;;;28.77;14.70;;;;;;;8.59;34.06;99454.72;10349673;28;20237;-84
2022/03/30 05:37:03;;;;;;;26.70;14.27;;;;;;;8.49;34.32;99457.22;10368373;28;20606;-84
2022/03/30 05:42:05;;;;;;;28.00;15.03;;;;;;;8.74;33.88;99458.00;10399989;28;20585;-84
2022/03/30 05:47:08;;;;;;;32.70;15.27;;;;;;;8.83;33.78;99448.19;10415790;28;20201;-83
2022/03/30 05:52:11;;;;;;;26.90;14.63;;;;;;;8.64;34.12;99454.47;10359483;28;20221;-84
2022/03/30 05:57:16;;;;;;;29.83;15.23;;;;;;;8.66;33.88;99457.72;10387480;28;20271;-84
2022/03/30 06:02:18;;;;;;;32.27;15.47;;;;;;;8.85;33.71;99459.13;10376536;28;20397;-84
2022/03/30 06:07:21;;;;;;;28.00;15.40;;;;;;;8.98;33.47;99466.34;10400802;28;20208;-84
2022/03/30 06:12:26;;;;;;;29.67;16.13;;;;;;;8.56;34.01;99460.22;10397079;28;20278;-84
2022/03/30 06:17:28;;;;;;;24.00;13.97;;;;;;;8.66;34.07;99463.38;10399037;28;20506;-84
2022/03/30 06:22:31;;;;;;;28.37;13.90;;;;;;;8.26;34.39;99459.72;10397030;28;20267;-84
2022/03/30 06:27:34;;;;;;;29.33;14.70;;;;;;;8.25;34.66;99453.28;10385506;28;20232;-86
2022/03/30 06:32:36;;;;;;;31.03;14.43;;;;;;;8.34;34.44;99460.75;10398565;28;20232;-87
2022/03/30 06:37:46;;;;;;;26.83;14.50;;;;;;;8.85;33.64;99459.13;10413336;28;20637;-84
2022/03/30 06:42:48;;;;;;;25.87;14.47;;;;;;;8.45;34.71;99457.09;10396187;28;20274;-85
2022/03/30 06:47:51;;;;;;;30.37;15.70;;;;;;;8.10;35.51;99462.44;10361588;28;20286;-84
2022/03/30 06:52:53;;;;;;;24.90;14.20;;;;;;;8.99;33.93;99454.72;10370175;28;20236;-84
2022/03/30 06:57:55;;;;;;;27.03;14.10;;;;;;;9.09;33.77;99452.56;10390817;28;20208;-84
2022/03/30 07:02:57;;;;;;;26.00;14.70;;;;;;;9.05;33.97;99458.09;10397152;28;20263;-84
2022/03/30 07:13:22;;;;;;;28.57;13.13;;;;;;;9.02;33.46;99465.28;10402387;28;20652;-84
2022/03/30 07:18:24;;;;;;;27.20;12.87;;;;;;;9.09;33.74;99464.66;10375861;28;20232;-84
2022/03/30 07:23:26;;;;;;;23.33;13.20;;;;;;;9.14;33.76;99460.75;10408088;28;20258;-84
2022/03/30 07:28:28;;;;;;;26.77;13.87;;;;;;;9.58;32.93;99461.53;10403953;28;20196;-85
2022/03/30 07:33:33;;;;;;;19.53;12.87;;;;;;;9.21;33.85;99467.41;10419982;28;20258;-85
2022/03/30 07:38:36;;;;;;;25.63;13.23;;;;;;;9.41;33.30;99459.91;10418157;28;20605;-84
2022/03/30 07:43:39;;;;;;;22.20;13.20;;;;;;;9.67;32.59;99446.13;10404493;28;20208;-84
2022/03/30 07:48:41;;;;;;;25.10;13.07;;;;;;;9.64;33.13;99444.03;10379187;28;20208;-85
2022/03/30 07:53:43;;;;;;;26.57;13.70;;;;;;;9.22;33.28;99442.84;10407450;28;20231;-85
2022/03/30 07:58:48;;;;;;;24.17;14.23;;;;;;;10.18;32.31;99436.88;10418689;28;20204;-85
2022/03/30 08:03:50;;;;;;;24.27;14.13;;;;;;;10.63;30.91;99439.13;10370538;28;20581;-85
2022/03/30 08:08:53;;;;;;;25.37;14.47;;;;;;;9.43;33.00;99429.34;10368713;28;20263;-87
2022/03/30 08:13:56;;;;;;;25.07;13.13;;;;;;;10.81;31.42;99431.03;10363773;28;20229;-87
2022/03/30 08:18:59;;;;;;;24.03;14.73;;;;;;;10.22;31.69;99437.78;10354616;28;20273;-88
2022/03/30 08:24:02;;;;;;;20.63;13.73;;;;;;;10.92;31.21;99427.22;10348777;28;20593;-86
2022/03/30 08:29:05;;;;;;;27.90;13.50;;;;;;;10.59;31.52;99430.59;10344221;28;20249;-88
2022/03/30 08:34:26;;;;;;;24.00;13.13;;;;;;;11.60;30.20;99418.03;10372624;28;20205;-87
2022/03/30 08:39:34;;;;;;;25.30;13.57;;;;;;;10.16;32.53;99428.75;10361259;28;20607;-89
2022/03/30 08:44:37;;;;;;;25.10;13.63;;;;;;;11.37;30.29;99418.03;10366122;28;20205;-86
2022/03/30 08:49:42;;;;;;;23.17;12.03;;;;;;;10.46;31.69;99426.25;10371318;28;20253;-89
2022/03/30 08:54:46;;;;;;;19.30;10.97;;;;;;;11.32;30.29;99424.00;10372930;28;20272;-90
2022/03/30 09:00:03;;;;;;;17.53;9.80;;;;;;;11.10;30.84;99417.09;10350164;28;20255;-88
2022/03/30 09:05:19;;;;;;;18.07;10.60;;;;;;;;;;10367591;28;20209;-85
2022/03/30 09:10:22;;;;;;;20.00;10.57;;;;;;;11.29;30.31;99419.09;10367734;28;20599;-87
2022/03/30 09:15:25;;;;;;;20.30;11.93;;;;;;;10.08;31.98;99416.50;10353506;28;20538;-86
2022/03/30 09:20:29;;;;;;;19.67;10.37;;;;;;;11.45;30.66;99408.47;10360208;28;20209;-85
2022/03/30 09:25:32;;;;;;;18.47;10.13;;;;;;;11.10;31.18;99404.97;10361197;28;20217;-87
2022/03/30 09:30:35;;;;;;;24.10;11.17;;;;;;;11.19;30.86;99399.06;10345185;28;20272;-84
2022/03/30 09:35:38;;;;;;;19.77;10.47;;;;;;;10.79;31.54;99405.94;10362325;28;20219;-88
2022/03/30 09:40:53;;;;;;;16.30;9.63;;;;;;;11.67;30.24;99391.84;10365473;28;20208;-88
2022/03/30 09:46:08;;;;;;;22.27;10.57;;;;;;;12.24;28.79;99392.78;10393279;28;20501;-86
2022/03/30 09:51:10;;;;;;;14.83;9.33;;;;;;;12.12;28.76;99386.16;10393425;28;20648;-86
2022/03/30 09:56:17;;;;;;;18.10;8.80;;;;;;;12.47;28.46;99388.66;10391772;28;20263;-87
2022/03/30 10:01:22;;;;;;;17.73;8.47;;;;;;;12.30;28.59;99377.88;10399159;28;20196;-86
2022/03/30 10:06:29;;;;;;;16.47;8.67;;;;;;;12.87;27.66;99373.81;10397657;28;20216;-89
2022/03/30 10:11:38;;;;;;;11.93;7.83;;;;;;;13.41;27.08;99369.50;10397620;28;20229;-87
2022/03/30 10:16:43;;;;;;;12.43;7.20;;;;;;;12.26;27.80;99359.22;10396350;28;20313;-87
2022/03/30 10:22:19;;;;;;;12.27;5.90;;;;;;;11.54;27.60;99362.94;10395973;28;20658;-86
2022/03/30 10:27:59;;;;;;;11.83;6.73;;;;;;;11.18;28.00;99350.16;10396130;28;20204;-86
2022/03/30 10:33:03;;;;;;;10.47;5.80;;;;;;;12.12;26.98;99346.47;10388338;28;20286;-88
2022/03/30 10:38:07;;;;;;;12.67;6.17;;;;;;;13.14;25.66;99336.81;10391477;28;20622;-87
2022/03/30 10:43:23;;;;;;;9.87;6.60;;;;;;;13.26;25.66;99328.00;10360470;28;20554;-85
2022/03/30 10:48:30;;;;;;;11.17;6.33;;;;;;;12.90;26.81;99327.66;10407547;28;20204;-88
2022/03/30 10:53:38;;;;;;;12.50;6.67;;;;;;;13.67;25.33;99322.28;10419305;28;20691;-86
2022/03/30 10:58:49;;;;;;;7.97;5.73;;;;;;;13.61;25.21;99316.16;10390721;28;20212;-88
2022/03/30 11:04:10;;;;;;;9.53;5.33;;;;;;;13.05;26.08;99316.44;10379728;28;20286;-84
2022/03/30 11:09:28;;;;;;;10.47;6.20;;;;;;;13.29;25.17;99298.84;10398036;28;20555;-86
2022/03/30 11:14:46;;;;;;;10.63;6.97;;;;;;;13.65;25.34;99293.47;10398242;28;20236;-87
2022/03/30 11:19:48;;;;;;;13.03;7.07;;;;;;;13.36;26.14;99293.19;10366309;28;20201;-86
2022/03/30 11:25:09;;;;;;;14.37;7.90;;;;;;;13.68;25.63;99287.00;10356319;28;20602;-85
2022/03/30 11:30:13;;;;;;;12.17;7.00;;;;;;;12.75;26.58;99291.78;10369159;28;20255;-84
2022/03/30 11:35:18;;;;;;;11.83;7.00;;;;;;;12.75;26.61;99274.78;10367039;28;20263;-87
2022/03/30 11:40:21;;;;;;;10.17;7.00;;;;;;;12.63;26.61;99277.88;10342074;28;20205;-85
2022/03/30 11:45:26;;;;;;;11.00;6.47;;;;;;;14.40;24.30;99257.75;10361477;28;20217;-85
2022/03/30 11:50:36;;;;;;;14.10;8.23;;;;;;;14.22;24.57;99254.84;10382050;28;20217;-85
2022/03/30 11:55:55;;;;;;;12.27;8.17;;;;;;;14.03;25.16;99260.81;10380149;28;20463;-84
2022/03/30 12:01:00;;;;;;;13.70;8.37;;;;;;;15.47;23.83;99233.94;10363349;28;20264;-89
2022/03/30 12:06:04;;;;;;;13.87;9.20;;;;;;;14.66;23.85;99234.69;10364822;28;20197;-89
2022/03/30 12:11:07;;;;;;;13.23;8.47;;;;;;;14.17;24.97;99236.13;10379340;28;20565;-88
2022/03/30 12:16:14;;;;;;;13.17;8.03;;;;;;;13.45;26.50;99234.09;10364051;28;20283;-88
2022/03/30 12:21:24;;;;;;;19.97;12.87;;;;;;;14.01;25.16;99232.78;10363115;28;20595;-89
2022/03/30 12:26:27;;;;;;;16.17;11.53;;;;;;;13.31;25.90;99238.84;10348186;28;20204;-85
2022/03/30 12:31:45;;;;;;;18.23;12.10;;;;;;;14.13;25.62;99229.59;10364554;28;20234;-88
2022/03/30 12:36:49;;;;;;;14.47;9.53;;;;;;;14.93;23.97;99213.19;10364349;28;20263;-88
2022/03/30 12:41:57;;;;;;;9.70;7.40;;;;;;;14.07;25.71;99228.38;10364563;28;20193;-89
2022/03/30 12:47:01;;;;;;;15.90;10.60;;;;;;;13.76;25.73;99215.63;10337403;28;20268;-88
2022/03/30 12:52:13;;;;;;;13.60;8.57;;;;;;;14.59;25.40;99197.69;10365237;28;20221;-89
2022/03/30 12:57:26;;;;;;;12.33;7.07;;;;;;;14.58;24.47;99191.19;10349274;28;20295;-89
2022/03/30 13:02:31;;;;;;;10.57;6.63;;;;;;;15.17;24.33;99188.00;10379548;28;20255;-87
2022/03/30 13:07:48;;;;;;;10.90;7.57;;;;;;;15.73;23.34;99181.41;10398912;28;20632;-88
2022/03/30 13:12:59;;;;;;;14.33;9.17;;;;;;;14.79;24.86;99176.16;10396959;28;20236;-89
2022/03/30 13:18:03;;;;;;;16.73;10.10;;;;;;;15.03;24.62;99166.03;10404216;28;20247;-87
2022/03/30 13:23:10;;;;;;;14.20;8.93;;;;;;;15.23;23.94;99163.59;10382362;28;20228;-88
2022/03/30 13:28:26;;;;;;;11.93;6.97;;;;;;;13.35;25.36;99169.50;10369278;28;20209;-86
2022/03/30 13:33:29;;;;;;;12.43;7.80;;;;;;;15.19;23.48;99165.63;10378534;28;20287;-85
2022/03/30 13:38:31;;;;;;;10.57;8.27;;;;;;;15.96;22.86;99141.00;10386227;28;20287;-88
2022/03/30 13:43:33;;;;;;;14.07;8.67;;;;;;;14.96;24.04;99144.06;10400449;28;20204;-85
2022/03/30 13:48:35;;;;;;;13.77;8.67;;;;;;;14.81;23.58;99139.59;10381612;28;20461;-85
2022/03/30 13:53:37;;;;;;;13.40;8.20;;;;;;;13.77;25.26;99145.44;10368578;28;20236;-84
2022/03/30 13:58:40;;;;;;;11.83;9.80;;;;;;;13.99;25.30;99143.50;10395953;28;20439;-87
2022/03/30 14:03:42;;;;;;;13.20;8.20;;;;;;;14.21;24.28;99133.81;10385763;28;20197;-85
2022/03/30 14:08:44;;;;;;;17.53;11.23;;;;;;;13.80;24.28;99136.94;10376456;28;20196;-86
2022/03/30 14:13:47;;;;;;;11.57;7.67;;;;;;;14.90;23.93;99122.91;10356660;28;20255;-87
2022/03/30 14:18:49;;;;;;;10.67;6.67;;;;;;;14.68;23.83;99112.78;10358546;28;20200;-85
2022/03/30 14:23:51;;;;;;;11.80;6.03;;;;;;;14.28;24.35;99114.72;10361512;28;20259;-84
2022/03/30 14:28:53;;;;;;;9.27;5.40;;;;;;;13.91;24.36;99114.22;10376750;28;20201;-84
2022/03/30 14:33:56;;;;;;;8.13;6.60;;;;;;;14.19;24.10;99102.94;10345426;28;20287;-83
2022/03/30 14:38:58;;;;;;;9.50;6.53;;;;;;;14.37;24.48;99108.69;10380809;28;20193;-85
2022/03/30 14:44:01;;;;;;;11.60;5.97;;;;;;;14.15;24.70;99099.28;10367399;28;20205;-84
2022/03/30 14:49:04;;;;;;;7.97;6.13;;;;;;;14.46;24.46;99100.59;10353710;28;20731;-87
2022/03/30 14:54:06;;;;;;;9.87;6.00;;;;;;;14.88;23.82;99093.28;10352594;28;20234;-85
2022/03/30 14:59:11;;;;;;;7.90;5.40;;;;;;;14.70;24.08;99093.28;10364215;28;20267;-84
2022/03/30 15:04:15;;;;;;;7.40;5.27;;;;;;;14.92;23.83;99080.63;10375996;28;20205;-86
2022/03/30 15:09:17;;;;;;;10.53;5.40;;;;;;;15.35;23.68;99083.44;10346803;28;20210;-87
2022/03/30 15:14:19;;;;;;;8.17;5.23;;;;;;;14.19;24.93;99085.06;10379357;28;20576;-84
2022/03/30 15:19:21;;;;;;;7.63;5.70;;;;;;;14.42;24.89;99088.38;10371822;28;20214;-84
2022/03/30 15:24:25;;;;;;;9.60;5.33;;;;;;;14.23;24.61;99081.03;10367612;28;20201;-86
2022/03/30 15:29:27;;;;;;;10.20;5.80;;;;;;;14.28;24.48;99074.94;10390992;28;20247;-84
2022/03/30 15:34:30;;;;;;;8.33;5.00;;;;;;;13.40;25.54;99078.28;10405214;28;20229;-85
2022/03/30 15:39:32;;;;;;;10.83;4.93;;;;;;;14.42;23.87;99074.16;10421888;28;20201;-89
2022/03/30 15:44:34;;;;;;;9.30;4.57;;;;;;;14.00;24.27;99065.53;10412455;28;20250;-88
2022/03/30 15:49:37;;;;;;;8.03;4.83;;;;;;;14.62;24.16;99069.72;10391036;28;20205;-85
2022/03/30 15:54:40;;;;;;;13.90;5.53;;;;;;;14.54;24.20;99061.56;10366141;28;20279;-86
2022/03/30 15:59:42;;;;;;;6.80;4.50;;;;;;;14.19;25.33;99068.84;10349219;28;20209;-87
2022/03/30 16:04:45;;;;;;;9.43;5.10;;;;;;;15.10;24.09;99065.59;10379158;28;20201;-86
2022/03/30 16:09:48;;;;;;;9.03;5.50;;;;;;;13.52;26.04;99072.25;10365328;28;20224;-87
2022/03/30 16:14:53;;;;;;;9.63;5.13;;;;;;;13.53;26.38;99065.38;10350439;28;20633;-88
2022/03/30 16:20:18;;;;;;;9.87;5.70;;;;;;;13.55;26.60;99065.78;10368066;28;20201;-87
2022/03/30 16:25:20;;;;;;;7.77;5.17;;;;;;;12.95;26.97;99078.88;10380318;28;20235;-85
2022/03/30 16:30:22;;;;;;;12.83;5.80;;;;;;;14.11;26.03;99070.06;10353022;28;20232;-85
2022/03/30 16:35:25;;;;;;;10.67;5.80;;;;;;;13.26;26.57;99072.56;10363465;28;20209;-88
2022/03/30 16:40:27;;;;;;;8.93;6.07;;;;;;;13.17;27.26;99077.78;10363905;28;20209;-86
2022/03/30 16:45:29;;;;;;;13.23;5.83;;;;;;;13.10;27.34;99083.41;10389191;28;20194;-87
2022/03/30 16:50:35;;;;;;;10.93;5.80;;;;;;;12.88;27.80;99088.13;10393410;28;20201;-88
2022/03/30 16:55:39;;;;;;;13.43;6.50;;;;;;;12.43;28.71;99089.38;10367441;28;20288;-86
2022/03/30 17:00:41;;;;;;;10.13;6.60;;;;;;;12.67;28.95;99094.44;10376669;28;20222;-86
2022/03/30 17:05:43;;;;;;;8.93;6.50;;;;;;;12.41;29.11;99098.25;10363687;28;20201;-85
2022/03/30 17:10:46;;;;;;;11.47;7.13;;;;;;;11.85;29.89;99092.78;10347444;28;20201;-86
2022/03/30 17:15:48;;;;;;;11.93;7.73;;;;;;;12.73;29.20;99101.34;10338489;28;20299;-87
2022/03/30 17:20:50;;;;;;;12.53;6.90;;;;;;;13.01;28.53;99102.81;10349046;28;20271;-88
2022/03/30 17:25:53;;;;;;;13.00;6.90;;;;;;;12.82;28.81;99107.50;10381479;28;20197;-87
2022/03/30 17:30:55;;;;;;;8.50;6.33;;;;;;;12.20;29.44;99107.34;10362796;28;20205;-87
2022/03/30 17:35:58;;;;;;;14.53;7.13;;;;;;;12.43;29.13;99098.66;10356543;28;20267;-87
2022/03/30 17:41:01;;;;;;;14.83;6.97;;;;;;;12.57;29.47;99097.97;10374629;28;20518;-87
2022/03/30 17:46:03;;;;;;;12.40;7.50;;;;;;;12.41;29.43;99101.09;10380229;28;20190;-85
2022/03/30 17:56:27;;;;;;;13.23;6.23;;;;;;;11.99;29.62;99101.44;10389685;28;20221;-85
2022/03/30 18:01:29;;;;;;;13.03;7.70;;;;;;;12.39;29.33;99106.34;10389789;28;20228;-85
2022/03/30 18:06:31;;;;;;;9.13;5.33;;;;;;;12.90;28.49;99112.06;10394881;28;20205;-86
2022/03/30 18:11:35;;;;;;;8.30;4.90;;;;;;;12.73;28.56;99109.03;10366235;28;20213;-86
2022/03/30 18:16:59;;;;;;;11.17;5.30;;;;;;;12.12;29.32;99114.16;10383892;28;20229;-85
2022/03/30 18:22:01;;;;;;;9.73;5.67;;;;;;;12.34;28.75;99117.19;10385850;28;20243;-85
2022/03/30 18:27:04;;;;;;;11.63;7.20;;;;;;;11.79;29.80;99114.97;10377701;28;20201;-87
2022/03/30 18:32:07;;;;;;;8.47;5.93;;;;;;;11.28;30.09;99116.69;10364906;28;20569;-85
2022/03/30 18:37:09;;;;;;;9.80;5.67;;;;;;;11.83;29.43;99115.00;10336196;28;20274;-86
2022/03/30 18:42:11;;;;;;;9.50;6.23;;;;;;;11.83;29.61;99120.69;10352053;28;20197;-87
2022/03/30 18:47:14;;;;;;;9.30;6.20;;;;;;;12.00;29.19;99119.25;10364500;28;20594;-87
2022/03/30 18:52:16;;;;;;;13.00;5.87;;;;;;;11.32;30.00;99124.06;10354310;28;20209;-85
2022/03/30 18:57:19;;;;;;;11.53;6.13;;;;;;;11.80;29.67;99112.94;10371941;28;20232;-85
2022/03/30 19:02:21;;;;;;;13.37;6.53;;;;;;;11.54;29.61;99130.81;10361390;28;20229;-85
2022/03/30 19:07:24;;;;;;;11.30;6.47;;;;;;;11.27;30.02;99124.34;10361782;28;20599;-89
2022/03/30 19:12:27;;;;;;;9.00;6.67;;;;;;;11.56;29.93;99127.59;10379899;28;20303;-85
2022/03/30 19:17:29;;;;;;;11.47;6.23;;;;;;;11.44;29.95;99131.50;10353926;28;20569;-88
2022/03/30 19:22:33;;;;;;;12.07;5.70;;;;;;;11.56;29.70;99131.25;10373565;28;20240;-87
2022/03/30 19:27:37;;;;;;;7.63;5.00;;;;;;;12.18;28.59;99126.75;10363924;28;20208;-86
2022/03/30 19:32:40;;;;;;;9.23;4.37;;;;;;;12.00;28.72;99120.06;10353247;28;20252;-86
2022/03/30 19:37:42;;;;;;;8.27;4.37;;;;;;;11.66;29.13;99126.91;10364721;28;20233;-87
2022/03/30 19:42:45;;;;;;;5.60;4.37;;;;;;;11.57;29.39;99135.72;10384225;28;20205;-86
2022/03/30 19:47:51;;;;;;;8.73;4.33;;;;;;;11.12;30.02;99134.69;10366292;28;20546;-86
2022/03/30 19:52:54;;;;;;;7.03;4.63;;;;;;;11.59;29.02;99132.50;10355980;28;20315;-87
2022/03/30 19:57:57;;;;;;;8.37;5.50;;;;;;;12.25;28.45;99131.69;10370412;28;20582;-86
2022/03/30 20:03:00;;;;;;;6.70;5.13;;;;;;;11.76;28.92;99131.94;10371506;28;20236;-87
2022/03/30 20:08:03;;;;;;;7.93;5.13;;;;;;;12.22;28.45;99123.16;10352076;28;20260;-88
2022/03/30 20:13:06;;;;;;;10.27;4.63;;;;;;;11.11;30.19;99118.09;10355611;28;20287;-86
2022/03/30 20:18:09;;;;;;;6.97;4.37;;;;;;;10.97;29.94;99123.53;10356585;28;20264;-88
2022/03/30 20:23:12;;;;;;;11.53;5.23;;;;;;;11.31;29.69;99122.44;10352519;28;20232;-85
2022/03/30 20:28:15;;;;;;;8.13;5.43;;;;;;;11.30;29.87;99120.81;10352027;28;20241;-86
2022/03/30 20:33:18;;;;;;;10.97;4.93;;;;;;;11.80;29.25;99115.78;10367041;28;20248;-85
2022/03/30 20:38:21;;;;;;;7.90;4.50;;;;;;;11.25;30.19;99118.28;10350618;28;20295;-86
2022/03/30 20:43:23;;;;;;;11.13;6.00;;;;;;;10.96;30.27;99127.53;10364183;28;20229;-87
2022/03/30 20:48:27;;;;;;;12.07;5.63;;;;;;;11.75;29.01;99118.97;10348711;28;20241;-86
2022/03/30 20:53:29;;;;;;;9.13;5.43;;;;;;;11.63;29.00;99111.56;10391335;28;20260;-86
2022/03/30 20:58:32;;;;;;;10.63;5.00;;;;;;;11.75;28.74;99105.63;10346663;28;20777;-85
2022/03/30 21:03:35;;;;;;;12.27;5.13;;;;;;;10.90;30.22;99117.75;10354362;28;20229;-86
2022/03/30 21:08:38;;;;;;;11.40;5.30;;;;;;;11.53;29.33;99109.38;10344485;28;20209;-86
2022/03/30 21:13:40;;;;;;;8.33;5.23;;;;;;;11.75;28.79;99090.66;10379504;28;20232;-86
2022/03/30 21:18:43;;;;;;;8.10;5.37;;;;;;;11.23;29.89;99098.06;10354937;28;20256;-86
2022/03/30 21:23:46;;;;;;;9.70;5.30;;;;;;;10.63;30.25;99103.59;10357604;28;20201;-86
2022/03/30 21:28:48;;;;;;;7.63;4.93;;;;;;;10.96;30.04;99093.59;10375945;28;20267;-86
2022/03/30 21:33:50;;;;;;;8.80;5.37;;;;;;;10.89;29.77;99099.13;10361438;28;20217;-86
2022/03/30 21:38:53;;;;;;;8.37;5.20;;;;;;;10.29;31.23;99094.09;10344500;28;20213;-86
2022/03/30 21:43:55;;;;;;;10.83;5.43;;;;;;;10.96;29.89;99085.13;10360163;28;20271;-86
2022/03/30 21:48:58;;;;;;;7.50;5.30;;;;;;;10.85;30.43;99092.63;10363501;28;20209;-88
2022/03/30 21:54:04;;;;;;;6.37;5.00;;;;;;;11.18;29.63;99084.22;10360287;28;20259;-85
2022/03/30 21:59:10;;;;;;;9.00;5.40;;;;;;;10.62;30.42;99087.81;10362722;28;20270;-86
2022/03/30 22:04:13;;;;;;;12.47;5.63;;;;;;;11.19;29.92;99080.19;10358636;28;20263;-86
2022/03/30 22:09:16;;;;;;;6.67;5.40;;;;;;;10.09;31.78;99084.88;10347043;28;20248;-85
2022/03/30 22:14:19;;;;;;;9.03;5.23;;;;;;;10.10;30.84;99080.03;10341909;28;20229;-86
2022/03/30 22:19:21;;;;;;;8.07;5.67;;;;;;;10.88;30.04;99072.06;10362211;28;20197;-86
2022/03/30 22:24:24;;;;;;;10.10;5.60;;;;;;;11.05;30.10;99071.50;10358825;28;20197;-86
2022/03/30 22:29:26;;;;;;;9.17;5.43;;;;;;;10.84;30.51;99068.38;10357657;28;20209;-86
2022/03/30 22:39:49;;;;;;;11.07;5.57;;;;;;;10.90;30.04;99066.84;10363135;28;20197;-85
2022/03/30 22:44:51;;;;;;;9.10;4.83;;;;;;;10.34;31.00;99067.56;10351178;28;20197;-86
2022/03/30 22:49:54;;;;;;;7.70;4.60;;;;;;;10.95;30.26;99066.53;10359960;28;20201;-86
2022/03/30 22:54:56;;;;;;;7.83;4.77;;;;;;;10.60;30.79;99064.81;10358863;28;20550;-86
2022/03/30 22:59:58;;;;;;;6.93;4.93;;;;;;;11.14;29.53;99055.06;10375450;28;20217;-86
2022/03/30 23:10:25;;;;;;;7.53;4.53;;;;;;;11.04;29.71;99050.09;10375095;28;20271;-87
2022/03/30 23:15:27;;;;;;;9.97;5.70;;;;;;;10.78;30.77;99043.25;10358400;28;20286;-86
2022/03/30 23:20:30;;;;;;;10.67;5.70;;;;;;;10.72;30.45;99032.69;10343542;28;20247;-86
2022/03/30 23:25:32;;;;;;;8.47;5.53;;;;;;;11.23;29.52;99035.81;10342646;28;20205;-86
2022/03/30 23:30:35;;;;;;;9.67;5.57;;;;;;;11.21;30.17;99031.72;10358430;28;20201;-86
2022/03/30 23:35:37;;;;;;;9.73;5.27;;;;;;;10.71;30.56;99031.88;10359212;28;20522;-86
2022/03/30 23:40:45;;;;;;;8.10;5.13;;;;;;;11.19;30.02;99028.47;10347416;28;20228;-86
2022/03/30 23:45:48;;;;;;;7.47;5.77;;;;;;;10.90;30.94;99021.59;10384764;28;20186;-86